Hartford, Connecticut
Traffic Map
Current Weather Conditions
Hartford, Connecticut
Overcast
Overcast
13°
Feels Like: 13°
Wind Chill: 13° Ceiling: 2000
Heat Index: 13° Visibility: 10mi
Dew Point: Wind: 7mph
Humidity: 80% Direction: 10° (N)
Pressure: 29.82in Gusts: 0mph
Raw Report DataKHFD 032153Z 01006KT 10SM OVC020 13/09 A2982 RMK AO2 SLP097 T01280094
Traffic Incident Summary
Active as of:
Severity:
Category:
InformationThere was an issue retrieving the traffic information for this location. Please try a different location or try again shortly.
Advertisements
Track Severe Weather on mobile